createdAt,value
2023-03-19T00:01:40.466Z,26.01
2023-03-19T00:05:40.590Z,26.03
2023-03-19T00:09:40.752Z,26.01
2023-03-19T00:13:40.849Z,26.01
2023-03-19T00:17:40.940Z,26.03
2023-03-19T00:21:41.092Z,26.01
2023-03-19T00:25:41.193Z,26.03
2023-03-19T00:29:41.345Z,25.97
2023-03-19T00:33:41.488Z,26.01
2023-03-19T00:37:41.561Z,25.98
2023-03-19T00:41:41.745Z,26.02
2023-03-19T00:45:41.873Z,26.04
2023-03-19T00:49:41.992Z,25.99
2023-03-19T00:53:42.103Z,26.05
2023-03-19T00:57:42.232Z,26.03
2023-03-19T01:01:42.424Z,26.01
2023-03-19T01:05:42.505Z,26.03
2023-03-19T01:09:42.661Z,26.01
2023-03-19T01:13:42.774Z,25.99
2023-03-19T01:17:42.902Z,26.05
2023-03-19T01:21:43.154Z,26.03
2023-03-19T01:25:43.224Z,26.03
2023-03-19T01:29:43.323Z,25.99
2023-03-19T01:33:43.474Z,25.98
2023-03-19T01:37:43.582Z,26.00
2023-03-19T01:41:43.733Z,26.02
2023-03-19T01:45:43.883Z,25.99
2023-03-19T01:49:44.028Z,25.99
2023-03-19T01:53:44.174Z,25.97
2023-03-19T01:57:44.324Z,26.02
2023-03-19T02:01:44.516Z,26.00
2023-03-19T02:05:44.608Z,25.98
2023-03-19T02:09:44.783Z,26.02
2023-03-19T02:13:44.926Z,26.01
2023-03-19T02:17:45.081Z,25.97
2023-03-19T02:21:45.234Z,26.00
2023-03-19T02:25:45.411Z,26.01
2023-03-19T02:29:45.565Z,26.04
2023-03-19T02:33:45.786Z,25.97
2023-03-19T02:37:45.915Z,25.97
2023-03-19T02:41:47.129Z,25.97
2023-03-19T02:45:46.253Z,25.97
2023-03-19T02:49:46.469Z,25.97
2023-03-19T02:53:46.633Z,25.97
2023-03-19T02:57:46.816Z,25.98
2023-03-19T03:01:47.068Z,25.94
2023-03-19T03:05:47.182Z,25.94
2023-03-19T03:09:47.353Z,25.94
2023-03-19T03:13:47.515Z,25.97
2023-03-19T03:17:47.700Z,25.94
2023-03-19T03:21:47.878Z,26.00
2023-03-19T03:25:48.090Z,25.92
2023-03-19T03:29:48.248Z,25.95
2023-03-19T03:33:48.484Z,25.95
2023-03-19T03:37:48.624Z,25.91
2023-03-19T03:41:48.866Z,25.95
2023-03-19T03:45:49.181Z,25.92
2023-03-19T03:49:49.234Z,25.93
2023-03-19T03:53:49.465Z,25.92
2023-03-19T03:57:49.676Z,25.93
2023-03-19T04:01:49.914Z,25.86
2023-03-19T04:05:50.036Z,25.92
2023-03-19T04:09:49.938Z,25.87
2023-03-19T04:13:49.947Z,25.89
2023-03-19T04:17:49.907Z,25.85
2023-03-19T04:21:49.872Z,25.92
2023-03-19T04:25:49.813Z,25.90
2023-03-19T04:29:49.760Z,25.89
2023-03-19T04:33:49.719Z,25.89
2023-03-19T04:37:49.658Z,25.87
2023-03-19T04:41:49.616Z,25.81
2023-03-19T04:45:49.597Z,25.86
2023-03-19T04:49:49.588Z,25.86
2023-03-19T04:53:49.772Z,25.81
2023-03-19T04:57:49.994Z,25.85
2023-03-19T05:01:50.029Z,25.87
2023-03-19T05:05:49.905Z,25.89
2023-03-19T05:09:49.865Z,25.86
2023-03-19T05:13:49.821Z,25.89
2023-03-19T05:17:49.791Z,25.87
2023-03-19T05:21:49.702Z,25.83
2023-03-19T05:25:49.735Z,25.81
2023-03-19T05:29:49.689Z,25.81
2023-03-19T05:33:49.570Z,25.83
2023-03-19T05:37:49.724Z,25.86
2023-03-19T05:41:49.869Z,25.84
2023-03-19T05:45:49.853Z,25.78
2023-03-19T05:49:49.834Z,25.84
2023-03-19T05:53:49.729Z,25.84
2023-03-19T05:57:49.709Z,25.81
2023-03-19T06:01:49.702Z,25.80
2023-03-19T06:05:49.630Z,25.78
2023-03-19T06:09:49.660Z,25.80
2023-03-19T06:13:49.637Z,25.74
2023-03-19T06:17:49.651Z,25.77
2023-03-19T06:21:49.644Z,25.76
2023-03-19T06:25:49.656Z,25.67
2023-03-19T06:29:49.793Z,25.69
2023-03-19T06:33:50.080Z,25.73
2023-03-19T06:37:50.273Z,25.67
2023-03-19T06:41:50.502Z,25.63
2023-03-19T06:45:50.743Z,25.63
2023-03-19T06:49:50.920Z,25.66
2023-03-19T06:53:51.128Z,25.58
2023-03-19T06:57:51.338Z,25.60
2023-03-19T07:01:51.563Z,25.56
2023-03-19T07:05:51.750Z,25.56
2023-03-19T07:09:51.957Z,25.58
2023-03-19T07:13:52.129Z,25.54
2023-03-19T07:17:52.359Z,25.50
2023-03-19T07:21:52.583Z,25.49
2023-03-19T07:25:52.772Z,25.41
2023-03-19T07:29:52.931Z,25.24
2023-03-19T07:33:53.087Z,25.17
2023-03-19T07:37:53.277Z,25.05
2023-03-19T07:41:53.413Z,25.04
2023-03-19T07:45:53.622Z,24.93
2023-03-19T07:49:53.630Z,24.84
2023-03-19T07:53:53.796Z,24.79
2023-03-19T07:57:53.862Z,24.77
2023-03-19T08:01:54.072Z,24.70
2023-03-19T08:05:54.096Z,24.70
2023-03-19T08:09:54.115Z,24.77
2023-03-19T08:13:54.203Z,24.80
2023-03-19T08:17:54.220Z,24.84
2023-03-19T08:21:54.303Z,24.78
2023-03-19T08:25:54.290Z,24.75
2023-03-19T08:29:54.391Z,24.74
2023-03-19T08:33:54.375Z,24.70
2023-03-19T08:37:54.485Z,24.66
2023-03-19T08:41:54.564Z,24.62
2023-03-19T08:45:54.759Z,24.59
2023-03-19T08:49:54.813Z,24.57
2023-03-19T08:53:55.052Z,24.55
2023-03-19T08:57:55.238Z,24.56
2023-03-19T09:01:55.394Z,24.50
2023-03-19T09:05:55.522Z,24.53
2023-03-19T09:09:55.675Z,24.45
2023-03-19T09:13:55.854Z,24.46
2023-03-19T09:17:55.907Z,24.35
2023-03-19T09:21:56.166Z,24.33
2023-03-19T09:25:56.064Z,24.23
2023-03-19T09:29:55.997Z,24.16
2023-03-19T09:33:56.008Z,24.12
2023-03-19T09:37:55.938Z,24.12
2023-03-19T09:41:55.934Z,24.07
2023-03-19T09:45:55.894Z,24.06
2023-03-19T09:49:55.867Z,24.10
2023-03-19T09:53:55.907Z,24.11
2023-03-19T09:57:55.791Z,24.06
2023-03-19T10:01:55.773Z,24.06
2023-03-19T10:05:55.797Z,23.96
2023-03-19T10:09:55.968Z,23.99
2023-03-19T10:13:56.135Z,23.99
2023-03-19T10:17:56.286Z,24.04
2023-03-19T10:21:56.405Z,24.08
2023-03-19T10:25:56.605Z,24.05
2023-03-19T10:29:56.741Z,24.09
2023-03-19T10:33:56.917Z,24.07
2023-03-19T10:37:57.040Z,24.11
2023-03-19T10:41:57.182Z,24.11
2023-03-19T10:45:57.354Z,24.06
2023-03-19T10:49:57.430Z,24.04
2023-03-19T10:53:57.571Z,24.06
2023-03-19T10:57:57.690Z,24.04
2023-03-19T11:01:57.768Z,24.06
2023-03-19T11:05:57.860Z,24.10
2023-03-19T11:09:57.948Z,24.10
2023-03-19T11:13:58.075Z,24.11
2023-03-19T11:17:58.242Z,24.11
2023-03-19T11:21:58.287Z,24.04
2023-03-19T11:25:58.410Z,24.06
2023-03-19T11:29:58.467Z,24.01
2023-03-19T11:33:58.543Z,24.05
2023-03-19T11:37:58.616Z,24.01
2023-03-19T11:41:58.706Z,23.98
2023-03-19T11:45:58.769Z,23.94
2023-03-19T11:49:58.765Z,23.94
2023-03-19T11:53:58.819Z,23.96
2023-03-19T11:57:58.849Z,23.94
2023-03-19T12:01:58.880Z,23.97
2023-03-19T12:05:58.882Z,23.96
2023-03-19T12:09:58.869Z,23.95
2023-03-19T12:13:58.933Z,23.93
2023-03-19T12:17:58.925Z,23.92
2023-03-19T12:21:58.932Z,23.90
2023-03-19T12:25:58.967Z,23.92
2023-03-19T12:29:58.960Z,23.96
2023-03-19T12:33:58.926Z,23.92
2023-03-19T12:37:58.951Z,23.91
2023-03-19T12:41:58.958Z,23.94
2023-03-19T12:45:58.946Z,23.91
2023-03-19T12:49:58.909Z,23.88
2023-03-19T12:53:58.906Z,23.93
2023-03-19T12:57:58.926Z,23.96
2023-03-19T13:01:59.066Z,23.93
2023-03-19T13:05:58.859Z,23.93
2023-03-19T13:09:58.822Z,23.94
2023-03-19T13:13:58.839Z,23.98
2023-03-19T13:17:58.793Z,24.07
2023-03-19T13:21:58.794Z,24.11
2023-03-19T13:25:58.770Z,24.11
2023-03-19T13:29:58.791Z,24.11
2023-03-19T13:33:58.795Z,24.24
2023-03-19T13:37:58.805Z,24.25
2023-03-19T13:41:58.867Z,24.23
2023-03-19T13:45:58.859Z,24.35
2023-03-19T13:49:58.916Z,24.41
2023-03-19T13:53:58.945Z,24.41
2023-03-19T13:57:58.990Z,24.46
2023-03-19T14:01:59.088Z,24.46
2023-03-19T14:05:59.240Z,24.47
2023-03-19T14:09:59.175Z,24.54
2023-03-19T14:13:59.264Z,24.54
2023-03-19T14:17:59.319Z,24.58
2023-03-19T14:21:59.389Z,24.56
2023-03-19T14:25:59.469Z,24.67
2023-03-19T14:30:01.000Z,24.62
2023-03-19T14:33:59.646Z,24.62
2023-03-19T14:37:59.727Z,24.72
2023-03-19T14:41:59.830Z,24.78
2023-03-19T14:46:00.028Z,24.72
2023-03-19T14:50:00.070Z,24.73
2023-03-19T14:54:00.212Z,24.76
2023-03-19T14:58:00.339Z,24.78
2023-03-19T15:02:00.450Z,24.78
2023-03-19T15:06:00.579Z,24.84
2023-03-19T15:10:00.732Z,24.90
2023-03-19T15:14:00.867Z,24.82
2023-03-19T15:18:04.304Z,24.81
2023-03-19T15:22:00.879Z,24.89
2023-03-19T15:26:00.936Z,24.89
2023-03-19T15:30:12.914Z,24.87
2023-03-19T15:34:01.875Z,24.89
2023-03-19T15:38:00.683Z,24.95
2023-03-19T15:42:02.127Z,24.95
2023-03-19T15:46:00.756Z,24.96
2023-03-19T15:50:00.939Z,25.01
2023-03-19T15:54:01.084Z,25.01
2023-03-19T15:58:01.253Z,24.98
2023-03-19T16:02:01.464Z,25.05
2023-03-19T16:06:01.628Z,25.00
2023-03-19T16:10:01.909Z,25.02
2023-03-19T16:14:02.110Z,25.05
2023-03-19T16:18:02.179Z,25.05
2023-03-19T16:22:02.366Z,25.10
2023-03-19T16:26:02.557Z,25.15
2023-03-19T16:30:02.731Z,25.15
2023-03-19T16:34:02.697Z,25.14
2023-03-19T16:38:02.612Z,25.13
2023-03-19T16:42:02.554Z,25.11
2023-03-19T16:46:02.504Z,25.10
2023-03-19T16:50:02.412Z,25.11
2023-03-19T16:54:02.375Z,25.12
2023-03-19T16:58:02.372Z,25.08
2023-03-19T17:02:02.383Z,25.14
2023-03-19T17:06:04.992Z,25.16
2023-03-19T17:10:02.205Z,25.19
2023-03-19T17:14:02.250Z,25.16
2023-03-19T17:18:02.073Z,25.13
2023-03-19T17:22:02.016Z,25.25
2023-03-19T17:26:02.016Z,25.18
2023-03-19T17:30:01.973Z,25.13
2023-03-19T17:34:01.974Z,25.19
2023-03-19T17:38:01.887Z,25.19
2023-03-19T17:42:01.818Z,25.17
2023-03-19T17:46:01.953Z,25.24
2023-03-19T17:50:01.875Z,25.24
2023-03-19T17:54:01.829Z,25.23
2023-03-19T17:58:01.798Z,25.23
2023-03-19T18:02:01.774Z,25.26
2023-03-19T18:06:01.703Z,25.30
2023-03-19T18:10:01.617Z,25.30
2023-03-19T18:14:01.527Z,25.24
2023-03-19T18:18:01.442Z,25.30
2023-03-19T18:22:01.350Z,25.28
2023-03-19T18:26:01.227Z,25.30
2023-03-19T18:30:01.168Z,25.38
2023-03-19T18:34:01.078Z,25.34
2023-03-19T18:38:01.013Z,25.41
2023-03-19T18:42:00.940Z,25.32
2023-03-19T18:46:00.996Z,25.39
2023-03-19T18:50:01.177Z,25.36
2023-03-19T18:54:01.202Z,25.46
2023-03-19T18:58:01.262Z,25.42
2023-03-19T19:02:01.249Z,25.45
2023-03-19T19:06:01.211Z,25.46
2023-03-19T19:10:01.261Z,25.49
2023-03-19T19:14:01.244Z,25.49
2023-03-19T19:18:01.260Z,25.50
2023-03-19T19:22:01.290Z,25.50
2023-03-19T19:26:01.278Z,25.49
2023-03-19T19:30:01.252Z,25.52
2023-03-19T19:34:01.198Z,25.54
2023-03-19T19:38:01.196Z,25.49
2023-03-19T19:42:01.166Z,25.50
2023-03-19T19:46:01.123Z,25.50
2023-03-19T19:50:01.109Z,25.50
2023-03-19T19:54:01.063Z,25.51
2023-03-19T19:58:01.029Z,25.54
2023-03-19T20:02:00.966Z,25.57
2023-03-19T20:06:00.920Z,25.54
2023-03-19T20:10:00.879Z,25.59
2023-03-19T20:14:00.813Z,25.57
2023-03-19T20:18:00.783Z,25.56
2023-03-19T20:22:00.741Z,25.63
2023-03-19T20:26:00.728Z,25.56
2023-03-19T20:30:00.708Z,25.62
2023-03-19T20:34:00.657Z,25.59
2023-03-19T20:38:00.625Z,25.60
2023-03-19T20:42:00.601Z,25.61
2023-03-19T20:46:00.591Z,25.65
2023-03-19T20:50:00.522Z,25.71
2023-03-19T20:54:00.471Z,25.73
2023-03-19T20:58:00.494Z,25.70
2023-03-19T21:02:00.503Z,25.71
2023-03-19T21:06:00.379Z,25.75
2023-03-19T21:10:01.017Z,25.75
2023-03-19T21:14:00.433Z,25.78
2023-03-19T21:18:00.497Z,25.79
2023-03-19T21:22:00.474Z,25.82
2023-03-19T21:26:00.492Z,25.82
2023-03-19T21:30:00.557Z,25.87
2023-03-19T21:34:00.550Z,25.88
2023-03-19T21:38:00.554Z,25.90
2023-03-19T21:42:00.545Z,25.88
2023-03-19T21:46:10.912Z,25.91
2023-03-19T21:50:01.581Z,25.88
2023-03-19T21:54:00.527Z,25.94
2023-03-19T21:58:00.484Z,25.94
2023-03-19T22:02:00.487Z,25.97
2023-03-19T22:06:00.453Z,25.97
2023-03-19T22:10:00.512Z,26.00
2023-03-19T22:14:00.443Z,25.99
2023-03-19T22:18:00.483Z,25.99
2023-03-19T22:22:00.492Z,26.02
2023-03-19T22:26:00.447Z,26.05
2023-03-19T22:30:00.469Z,26.08
2023-03-19T22:34:00.434Z,26.04
2023-03-19T22:38:00.473Z,26.09
2023-03-19T22:42:00.477Z,26.16
2023-03-19T22:46:00.527Z,26.12
2023-03-19T22:50:00.544Z,26.16
2023-03-19T22:54:00.547Z,26.20
2023-03-19T22:58:00.573Z,26.15
2023-03-19T23:02:00.667Z,26.23
2023-03-19T23:06:00.663Z,26.26
2023-03-19T23:10:00.676Z,26.29
2023-03-19T23:14:00.722Z,26.34
2023-03-19T23:18:00.767Z,26.32
2023-03-19T23:23:46.259Z,26.34
2023-03-19T23:27:46.326Z,26.34
2023-03-19T23:31:46.326Z,26.38
2023-03-19T23:35:46.370Z,26.36
2023-03-19T23:39:46.316Z,26.45
2023-03-19T23:43:46.366Z,26.41
2023-03-19T23:47:46.355Z,26.44
2023-03-19T23:51:46.398Z,26.46
2023-03-19T23:55:46.368Z,26.46
2023-03-19T23:59:46.376Z,26.50
